createdAt,value
2017-10-26T00:01:00.620Z,16.35
2017-10-26T00:03:28.109Z,17.10
2017-10-26T00:05:55.596Z,14.27
2017-10-26T00:08:23.847Z,15.15
2017-10-26T00:10:51.333Z,17.17
2017-10-26T00:13:19.592Z,14.47
2017-10-26T00:15:47.078Z,15.80
2017-10-26T00:18:16.260Z,16.57
2017-10-26T00:20:44.495Z,13.53
2017-10-26T00:23:12.006Z,14.60
2017-10-26T00:25:40.252Z,13.67
2017-10-26T00:28:07.766Z,19.47
2017-10-26T00:30:35.257Z,15.05
2017-10-26T00:33:02.757Z,23.43
2017-10-26T00:35:31.005Z,23.20
2017-10-26T00:37:58.499Z,23.63
2017-10-26T00:40:25.960Z,20.37
2017-10-26T00:42:53.451Z,24.07
2017-10-26T00:45:20.943Z,22.67
2017-10-26T00:47:48.448Z,25.93
2017-10-26T00:50:15.926Z,17.63
2017-10-26T00:52:43.430Z,22.17
2017-10-26T00:55:11.673Z,24.33
2017-10-26T00:57:39.153Z,21.43
2017-10-26T01:00:07.407Z,19.87
2017-10-26T01:02:34.916Z,20.20
2017-10-26T01:05:02.389Z,21.07
2017-10-26T01:07:29.865Z,25.33
2017-10-26T01:09:57.356Z,23.90
2017-10-26T01:12:24.837Z,43.43
2017-10-26T01:14:53.084Z,69.97
2017-10-26T01:17:20.561Z,98.33
2017-10-26T01:19:48.824Z,68.57
2017-10-26T01:22:16.294Z,88.87
2017-10-26T01:24:44.571Z,88.20
2017-10-26T01:27:12.836Z,48.60
2017-10-26T01:29:40.341Z,53.50
2017-10-26T01:32:07.812Z,61.13
2017-10-26T01:34:35.295Z,72.80
2017-10-26T01:37:04.281Z,76.73
2017-10-26T01:39:31.785Z,46.40
2017-10-26T01:42:00.026Z,56.93
2017-10-26T01:44:27.521Z,49.60
2017-10-26T01:46:55.016Z,69.10
2017-10-26T01:49:22.501Z,63.53
2017-10-26T01:51:49.989Z,47.90
2017-10-26T01:54:17.488Z,63.80
2017-10-26T01:56:44.962Z,67.10
2017-10-26T01:59:12.445Z,51.53
2017-10-26T02:01:40.717Z,60.33
2017-10-26T02:04:08.199Z,55.40
2017-10-26T02:06:35.689Z,62.73
2017-10-26T02:09:13.545Z,56.78
2017-10-26T02:11:41.827Z,55.93
2017-10-26T02:14:10.164Z,61.57
2017-10-26T02:16:37.643Z,54.50
2017-10-26T02:19:19.979Z,64.68
2017-10-26T02:21:48.211Z,56.17
2017-10-26T02:24:15.704Z,52.40
2017-10-26T02:26:43.945Z,54.67
2017-10-26T02:29:23.242Z,66.53
2017-10-26T02:31:50.763Z,59.07
2017-10-26T02:34:19.001Z,65.97
2017-10-26T02:36:46.486Z,49.53
2017-10-26T02:39:13.993Z,84.85
2017-10-26T02:41:41.502Z,64.03
2017-10-26T02:44:09.751Z,70.73
2017-10-26T02:46:37.234Z,63.70
2017-10-26T02:49:06.223Z,73.70
2017-10-26T02:51:33.713Z,76.07
2017-10-26T02:54:01.962Z,66.40
2017-10-26T02:56:29.433Z,87.10
2017-10-26T02:58:57.680Z,58.77
2017-10-26T03:01:25.164Z,72.68
2017-10-26T03:03:53.414Z,51.30
2017-10-26T03:06:20.895Z,57.63
2017-10-26T03:08:48.372Z,48.60
2017-10-26T03:11:15.865Z,55.20
2017-10-26T03:13:43.335Z,68.80
2017-10-26T03:16:10.818Z,74.93
2017-10-26T03:18:38.318Z,52.90
2017-10-26T03:21:05.825Z,55.23
2017-10-26T03:23:33.295Z,53.10
2017-10-26T03:26:00.769Z,47.77
2017-10-26T03:28:29.022Z,44.27
2017-10-26T03:30:56.520Z,35.53
2017-10-26T03:33:24.015Z,28.20
2017-10-26T03:35:51.495Z,36.67
2017-10-26T03:38:18.977Z,28.60
2017-10-26T03:40:47.217Z,34.63
2017-10-26T03:43:14.707Z,27.17
2017-10-26T03:45:42.946Z,30.80
2017-10-26T03:48:10.527Z,35.67
2017-10-26T03:50:38.009Z,28.10
2017-10-26T03:53:05.509Z,30.23
2017-10-26T03:55:32.996Z,31.77
2017-10-26T03:58:00.494Z,28.80
2017-10-26T04:00:27.957Z,26.23
2017-10-26T04:02:55.438Z,23.00
2017-10-26T04:05:23.013Z,28.57
2017-10-26T04:07:50.537Z,45.47
2017-10-26T04:10:18.018Z,28.60
2017-10-26T04:12:45.522Z,38.23
2017-10-26T04:15:13.769Z,69.97
2017-10-26T04:17:41.240Z,78.17
2017-10-26T04:20:08.736Z,62.27
2017-10-26T04:22:36.237Z,73.27
2017-10-26T04:25:03.721Z,123.27
2017-10-26T04:27:31.204Z,139.17
2017-10-26T04:29:59.447Z,102.13
2017-10-26T04:32:26.934Z,77.07
2017-10-26T04:34:55.189Z,126.10
2017-10-26T04:37:22.673Z,107.33
2017-10-26T04:39:50.169Z,37.83
2017-10-26T04:42:17.657Z,66.77
2017-10-26T04:44:45.165Z,51.23
2017-10-26T04:47:12.645Z,87.60
2017-10-26T04:49:40.130Z,47.03
2017-10-26T04:52:08.381Z,52.30
2017-10-26T04:54:35.865Z,56.57
2017-10-26T04:57:03.348Z,34.03
2017-10-26T04:59:31.597Z,42.50
2017-10-26T05:01:59.716Z,40.10
2017-10-26T05:04:27.213Z,41.30
2017-10-26T05:06:54.701Z,50.57
2017-10-26T05:09:22.975Z,253.57
2017-10-26T05:11:51.225Z,69.00
2017-10-26T05:14:18.724Z,49.40
2017-10-26T05:16:46.969Z,68.27
2017-10-26T05:19:14.450Z,95.23
2017-10-26T05:21:42.729Z,112.23
2017-10-26T05:24:11.014Z,63.37
2017-10-26T05:26:39.358Z,61.27
2017-10-26T05:29:06.837Z,50.40
2017-10-26T05:31:35.099Z,47.07
2017-10-26T05:34:04.081Z,67.50
2017-10-26T05:36:31.564Z,49.30
2017-10-26T05:38:59.807Z,116.83
2017-10-26T05:41:27.311Z,170.20
2017-10-26T05:43:54.802Z,84.03
2017-10-26T05:46:22.292Z,43.63
2017-10-26T05:48:49.777Z,36.00
2017-10-26T05:51:18.032Z,40.23
2017-10-26T05:53:45.501Z,40.50
2017-10-26T05:56:13.005Z,54.80
2017-10-26T05:58:40.506Z,34.00
2017-10-26T06:01:07.977Z,32.03
2017-10-26T06:03:36.241Z,33.83
2017-10-26T06:06:03.757Z,44.60
2017-10-26T06:08:31.242Z,35.93
2017-10-26T06:10:58.743Z,18.43
2017-10-26T06:13:27.992Z,18.47
2017-10-26T06:15:55.476Z,30.03
2017-10-26T06:18:22.965Z,25.73
2017-10-26T06:20:50.454Z,44.40
2017-10-26T06:23:17.945Z,23.20
2017-10-26T06:25:45.420Z,25.97
2017-10-26T06:28:13.679Z,46.37
2017-10-26T06:30:41.153Z,26.00
2017-10-26T06:33:09.405Z,19.33
2017-10-26T06:35:37.664Z,24.43
2017-10-26T06:38:05.149Z,17.90
2017-10-26T06:40:33.401Z,21.47
2017-10-26T06:43:00.892Z,17.30
2017-10-26T06:45:29.141Z,17.03
2017-10-26T06:47:56.622Z,18.23
2017-10-26T06:50:24.900Z,22.03
2017-10-26T06:52:53.151Z,16.53
2017-10-26T06:55:20.637Z,20.53
2017-10-26T06:57:48.886Z,29.67
2017-10-26T07:00:16.370Z,20.63
2017-10-26T07:02:44.640Z,27.63
2017-10-26T07:05:13.874Z,31.77
2017-10-26T07:07:41.401Z,16.57
2017-10-26T07:10:08.886Z,18.60
2017-10-26T07:12:36.377Z,19.03
2017-10-26T07:15:03.904Z,13.73
2017-10-26T07:17:31.381Z,13.40
2017-10-26T07:19:58.883Z,12.53
2017-10-26T07:22:27.119Z,17.67
2017-10-26T07:24:54.624Z,15.27
2017-10-26T07:27:22.885Z,18.00
2017-10-26T07:29:50.374Z,17.17
2017-10-26T07:32:18.623Z,13.20
2017-10-26T07:34:46.096Z,30.90
2017-10-26T07:37:14.354Z,18.08
2017-10-26T07:39:43.472Z,15.30
2017-10-26T07:42:11.834Z,16.97
2017-10-26T07:44:40.083Z,14.70
2017-10-26T07:47:07.564Z,15.83
2017-10-26T07:49:35.065Z,16.43
2017-10-26T07:52:02.567Z,15.13
2017-10-26T07:54:30.064Z,10.93
2017-10-26T07:56:58.317Z,13.93
2017-10-26T07:59:25.808Z,14.50
2017-10-26T08:01:53.297Z,13.60
2017-10-26T08:04:20.791Z,12.30
2017-10-26T08:06:49.794Z,10.90
2017-10-26T08:09:18.053Z,10.73
2017-10-26T08:11:45.562Z,10.10
2017-10-26T08:14:13.038Z,8.73
2017-10-26T08:16:40.523Z,15.03
2017-10-26T08:19:08.005Z,11.47
2017-10-26T08:21:36.245Z,9.32
2017-10-26T08:24:03.713Z,13.50
2017-10-26T08:26:31.980Z,9.10
2017-10-26T08:28:59.450Z,17.10
2017-10-26T08:31:26.940Z,7.93
2017-10-26T08:33:55.174Z,7.63
2017-10-26T08:36:22.670Z,7.10
2017-10-26T08:38:50.921Z,8.80
2017-10-26T08:41:18.401Z,7.07
2017-10-26T08:43:46.645Z,7.03
2017-10-26T08:46:14.154Z,13.73
2017-10-26T08:48:41.645Z,7.50
2017-10-26T08:51:09.137Z,6.83
2017-10-26T08:53:36.605Z,7.62
2017-10-26T08:56:04.089Z,7.70
2017-10-26T08:58:31.572Z,9.65
2017-10-26T09:00:59.081Z,9.83
2017-10-26T09:03:27.324Z,7.43
2017-10-26T09:05:54.803Z,7.87
2017-10-26T09:08:22.292Z,9.20
2017-10-26T09:10:49.792Z,6.63
2017-10-26T09:13:17.287Z,7.60
2017-10-26T09:15:46.371Z,8.60
2017-10-26T09:18:14.616Z,9.77
2017-10-26T09:20:42.100Z,9.70
2017-10-26T09:23:09.600Z,7.00
2017-10-26T09:25:37.101Z,10.70
2017-10-26T09:28:04.588Z,8.23
2017-10-26T09:30:32.058Z,7.27
2017-10-26T09:33:06.030Z,8.83
2017-10-26T09:35:33.503Z,8.73
2017-10-26T09:38:00.992Z,7.40
2017-10-26T09:40:28.480Z,12.57
2017-10-26T09:42:55.969Z,13.83
2017-10-26T09:45:24.961Z,15.17
2017-10-26T09:47:52.446Z,10.80
2017-10-26T09:50:20.698Z,17.03
2017-10-26T09:52:48.183Z,11.83
2017-10-26T09:55:16.439Z,12.63
2017-10-26T09:57:43.921Z,9.60
2017-10-26T10:00:12.162Z,10.85
2017-10-26T10:02:39.646Z,10.60
2017-10-26T10:05:07.914Z,11.93
2017-10-26T10:07:43.196Z,9.27
2017-10-26T10:10:33.769Z,10.38
2017-10-26T10:13:02.030Z,12.87
2017-10-26T10:15:30.285Z,10.63
2017-10-26T10:17:57.784Z,8.93
2017-10-26T10:20:25.266Z,8.00
2017-10-26T10:22:52.746Z,9.13
2017-10-26T10:25:20.212Z,9.57
2017-10-26T10:27:47.713Z,10.87
2017-10-26T10:30:15.185Z,8.20
2017-10-26T10:32:42.676Z,9.87
2017-10-26T10:35:10.179Z,11.47
2017-10-26T10:37:38.440Z,7.43
2017-10-26T10:40:05.941Z,12.23
2017-10-26T10:42:33.738Z,9.20
2017-10-26T10:45:01.205Z,16.57
2017-10-26T10:47:28.705Z,12.57
2017-10-26T10:49:56.945Z,10.63
2017-10-26T10:52:24.428Z,11.63
2017-10-26T10:54:52.680Z,11.87
2017-10-26T10:57:21.672Z,8.23
2017-10-26T10:59:54.769Z,9.93
2017-10-26T11:02:22.260Z,11.10
2017-10-26T11:04:49.748Z,9.20
2017-10-26T11:07:17.227Z,8.00
2017-10-26T11:09:44.814Z,12.67
2017-10-26T11:12:13.063Z,7.70
2017-10-26T11:14:40.562Z,7.90
2017-10-26T11:17:08.816Z,9.27
2017-10-26T11:19:36.302Z,9.27
2017-10-26T11:22:03.788Z,6.47
2017-10-26T11:24:31.283Z,10.67
2017-10-26T11:26:58.760Z,7.73
2017-10-26T11:29:27.020Z,6.97
2017-10-26T11:31:54.497Z,6.23
2017-10-26T11:34:22.755Z,9.23
2017-10-26T11:36:51.000Z,5.68
2017-10-26T11:39:18.909Z,5.47
2017-10-26T11:41:47.143Z,4.80
2017-10-26T11:44:14.641Z,5.20
2017-10-26T11:46:42.123Z,5.30
2017-10-26T11:49:09.609Z,5.35
2017-10-26T11:51:37.072Z,5.13
2017-10-26T11:54:04.588Z,7.70
2017-10-26T11:56:32.819Z,5.17
2017-10-26T11:59:00.296Z,4.55
2017-10-26T12:01:28.546Z,5.47
2017-10-26T12:03:56.035Z,5.47
2017-10-26T12:06:24.298Z,6.87
2017-10-26T12:08:52.541Z,5.77
2017-10-26T12:11:20.053Z,5.67
2017-10-26T12:13:48.288Z,7.20
2017-10-26T12:16:15.772Z,5.03
2017-10-26T12:18:43.241Z,5.43
2017-10-26T12:21:11.484Z,4.93
2017-10-26T12:23:38.960Z,4.93
2017-10-26T12:26:06.440Z,4.50
2017-10-26T12:28:34.680Z,7.17
2017-10-26T12:31:02.161Z,4.50
2017-10-26T12:33:29.632Z,5.60
2017-10-26T12:35:57.899Z,9.47
2017-10-26T12:38:26.130Z,4.60
2017-10-26T12:40:53.609Z,6.57
2017-10-26T12:43:21.078Z,5.67
2017-10-26T12:45:48.555Z,9.53
2017-10-26T12:48:16.060Z,9.43
2017-10-26T12:50:43.531Z,6.60
2017-10-26T12:53:11.011Z,5.37
2017-10-26T12:55:38.524Z,8.93
2017-10-26T12:58:05.992Z,6.40
2017-10-26T13:00:33.480Z,12.00
2017-10-26T13:03:00.958Z,8.10
2017-10-26T13:05:29.197Z,7.63
2017-10-26T13:07:56.687Z,7.33
2017-10-26T13:10:24.949Z,12.63
2017-10-26T13:12:53.201Z,9.97
2017-10-26T13:15:20.675Z,10.73
2017-10-26T13:17:48.179Z,7.80
2017-10-26T13:20:15.648Z,7.27
2017-10-26T13:22:43.128Z,9.20
2017-10-26T13:25:10.618Z,7.57
2017-10-26T13:27:38.112Z,10.85
2017-10-26T13:30:06.437Z,13.17
2017-10-26T13:32:33.909Z,7.80
2017-10-26T13:35:01.393Z,18.67
2017-10-26T13:37:29.659Z,10.23
2017-10-26T13:39:57.893Z,12.47
2017-10-26T13:42:25.382Z,8.73
2017-10-26T13:44:52.931Z,9.00
2017-10-26T13:47:20.422Z,11.00
2017-10-26T13:49:48.693Z,10.43
2017-10-26T13:52:16.966Z,7.50
2017-10-26T13:54:45.204Z,11.50
2017-10-26T13:57:12.690Z,10.73
2017-10-26T13:59:40.176Z,11.33
2017-10-26T14:02:07.686Z,8.03
2017-10-26T14:04:35.176Z,10.63
2017-10-26T14:07:03.426Z,8.23
2017-10-26T14:09:30.913Z,11.20
2017-10-26T14:11:59.171Z,11.80
2017-10-26T14:14:26.656Z,10.03
2017-10-26T14:16:54.123Z,11.43
2017-10-26T14:19:21.619Z,10.30
2017-10-26T14:21:49.082Z,9.47
2017-10-26T14:24:16.576Z,11.50
2017-10-26T14:26:44.844Z,9.07
2017-10-26T14:29:13.109Z,11.17
2017-10-26T14:31:40.605Z,13.57
2017-10-26T14:34:08.101Z,10.93
2017-10-26T14:36:35.573Z,12.17
2017-10-26T14:39:03.073Z,16.83
2017-10-26T14:41:30.566Z,10.47
2017-10-26T14:43:58.039Z,9.37
2017-10-26T14:46:26.374Z,14.33
2017-10-26T14:48:53.902Z,15.50
2017-10-26T14:51:22.264Z,9.83
2017-10-26T14:53:50.506Z,9.87
2017-10-26T14:56:17.980Z,10.13
2017-10-26T14:58:45.468Z,11.23
2017-10-26T15:01:13.717Z,9.50
2017-10-26T15:03:41.191Z,12.67
2017-10-26T15:06:10.384Z,13.37
2017-10-26T15:08:37.868Z,13.90
2017-10-26T15:11:06.119Z,13.33
2017-10-26T15:13:33.613Z,9.80
2017-10-26T15:16:01.875Z,13.70
2017-10-26T15:18:30.134Z,9.13
2017-10-26T15:20:57.608Z,13.60
2017-10-26T15:23:25.878Z,10.57
2017-10-26T15:25:53.365Z,13.73
2017-10-26T15:28:20.855Z,12.23
2017-10-26T15:30:48.353Z,10.70
2017-10-26T15:33:15.830Z,8.13
2017-10-26T15:35:44.091Z,13.60
2017-10-26T15:38:12.348Z,10.47
2017-10-26T15:40:39.832Z,11.43
2017-10-26T15:43:08.083Z,15.03
2017-10-26T15:45:35.562Z,13.40
2017-10-26T15:48:03.790Z,16.17
2017-10-26T15:50:32.659Z,15.93
2017-10-26T15:53:00.138Z,17.57
2017-10-26T15:55:27.646Z,17.27
2017-10-26T15:57:55.890Z,16.60
2017-10-26T16:00:23.389Z,15.40
2017-10-26T16:02:51.636Z,17.92
2017-10-26T16:05:19.166Z,23.80
2017-10-26T16:07:46.658Z,22.33
2017-10-26T16:10:14.147Z,18.00
2017-10-26T16:12:41.667Z,20.33
2017-10-26T16:15:10.664Z,23.00
2017-10-26T16:17:38.174Z,41.37
2017-10-26T16:20:05.669Z,31.97
2017-10-26T16:22:33.164Z,29.97
2017-10-26T16:25:00.637Z,21.98
2017-10-26T16:27:28.138Z,24.60
2017-10-26T16:29:55.628Z,20.40
2017-10-26T16:32:23.885Z,22.33
2017-10-26T16:34:51.348Z,23.40
2017-10-26T16:37:18.850Z,20.10
2017-10-26T16:39:46.332Z,22.27
2017-10-26T16:42:13.847Z,18.33
2017-10-26T16:44:42.100Z,16.53
2017-10-26T16:47:13.350Z,16.80
2017-10-26T16:49:41.596Z,19.87
2017-10-26T16:52:09.090Z,16.50
2017-10-26T16:54:37.353Z,15.37
2017-10-26T16:57:04.836Z,18.27
2017-10-26T16:59:32.336Z,17.10
2017-10-26T17:01:59.836Z,17.80
2017-10-26T17:04:28.077Z,19.70
2017-10-26T17:06:55.599Z,13.70
2017-10-26T17:09:23.096Z,17.10
2017-10-26T17:11:50.610Z,17.33
2017-10-26T17:14:18.109Z,16.70
2017-10-26T17:16:45.582Z,17.03
2017-10-26T17:19:13.085Z,15.30
2017-10-26T17:21:40.588Z,17.20
2017-10-26T17:24:08.189Z,15.13
2017-10-26T17:26:36.437Z,15.03
2017-10-26T17:29:03.931Z,17.70
2017-10-26T17:31:32.176Z,15.10
2017-10-26T17:33:59.669Z,15.90
2017-10-26T17:36:27.912Z,20.30
2017-10-26T17:38:56.164Z,26.33
2017-10-26T17:41:23.648Z,21.50
2017-10-26T17:43:51.137Z,21.67
2017-10-26T17:46:18.628Z,24.60
2017-10-26T17:48:46.147Z,15.43
2017-10-26T17:51:14.387Z,13.93
2017-10-26T17:53:41.892Z,12.13
2017-10-26T17:56:09.378Z,14.90
2017-10-26T17:58:36.884Z,15.60
2017-10-26T18:01:05.130Z,14.30
2017-10-26T18:03:33.390Z,30.70
2017-10-26T18:06:00.857Z,16.70
2017-10-26T18:08:28.358Z,21.07
2017-10-26T18:10:56.599Z,27.93
2017-10-26T18:13:24.119Z,29.17
2017-10-26T18:15:51.627Z,15.20
2017-10-26T18:18:19.127Z,20.80
2017-10-26T18:20:46.613Z,20.90
2017-10-26T18:23:14.089Z,17.77
2017-10-26T18:25:41.580Z,15.35
2017-10-26T18:28:09.817Z,15.07
2017-10-26T18:30:37.324Z,16.83
2017-10-26T18:33:04.846Z,17.67
2017-10-26T18:35:32.340Z,16.80
2017-10-26T18:38:00.577Z,18.10
2017-10-26T18:40:28.197Z,20.97
2017-10-26T18:42:55.685Z,22.37
2017-10-26T18:45:23.204Z,16.10
2017-10-26T18:47:50.688Z,18.83
2017-10-26T18:50:18.219Z,14.23
2017-10-26T18:52:45.694Z,16.13
2017-10-26T18:55:13.210Z,15.07
2017-10-26T18:57:40.726Z,18.73
2017-10-26T19:00:08.229Z,15.70
2017-10-26T19:02:35.711Z,14.60
2017-10-26T19:05:03.218Z,12.13
2017-10-26T19:07:30.738Z,14.73
2017-10-26T19:09:58.228Z,11.73
2017-10-26T19:12:25.704Z,14.63
2017-10-26T19:14:53.969Z,13.47
2017-10-26T19:17:22.424Z,10.67
2017-10-26T19:19:49.924Z,18.47
2017-10-26T19:22:17.409Z,12.40
2017-10-26T19:24:45.697Z,11.60
2017-10-26T19:27:13.194Z,13.13
2017-10-26T19:29:40.691Z,13.30
2017-10-26T19:32:08.953Z,13.70
2017-10-26T19:34:36.428Z,9.83
2017-10-26T19:37:04.671Z,12.17
2017-10-26T19:39:32.177Z,13.10
2017-10-26T19:41:59.656Z,15.80
2017-10-26T19:44:27.167Z,14.20
2017-10-26T19:46:54.664Z,11.43
2017-10-26T19:49:22.160Z,13.43
2017-10-26T19:51:49.635Z,14.00
2017-10-26T19:54:17.146Z,12.93
2017-10-26T19:56:44.691Z,11.73
2017-10-26T19:59:13.100Z,11.57
2017-10-26T20:01:41.013Z,12.37
2017-10-26T20:04:09.262Z,12.40
2017-10-26T20:06:36.753Z,10.80
2017-10-26T20:09:05.016Z,14.70
2017-10-26T20:11:32.500Z,11.33
2017-10-26T20:13:59.994Z,11.73
2017-10-26T20:16:27.493Z,13.73
2017-10-26T20:18:55.764Z,12.53
2017-10-26T20:21:24.761Z,12.83
2017-10-26T20:23:52.248Z,12.30
2017-10-26T20:26:21.397Z,17.87
2017-10-26T20:28:49.660Z,12.63
2017-10-26T20:31:17.160Z,12.20
2017-10-26T20:33:45.412Z,11.33
2017-10-26T20:36:13.664Z,13.60
2017-10-26T20:38:41.157Z,11.18
2017-10-26T20:41:09.398Z,10.43
2017-10-26T20:43:36.887Z,12.20
2017-10-26T20:46:04.388Z,10.67
2017-10-26T20:48:31.918Z,10.90
2017-10-26T20:51:06.011Z,13.10
2017-10-26T20:53:40.704Z,9.23
2017-10-26T20:56:14.015Z,12.80
2017-10-26T20:58:47.306Z,10.18
2017-10-26T21:01:20.475Z,17.37
2017-10-26T21:03:53.695Z,14.57
2017-10-26T21:06:21.188Z,11.80
2017-10-26T21:08:55.198Z,10.15
2017-10-26T21:11:29.124Z,9.90
2017-10-26T21:14:02.319Z,9.00
2017-10-26T21:16:29.835Z,11.20
2017-10-26T21:18:57.304Z,12.55
2017-10-26T21:21:24.789Z,9.93
2017-10-26T21:23:52.289Z,11.80
2017-10-26T21:26:19.760Z,15.27
2017-10-26T21:28:47.247Z,15.20
2017-10-26T21:31:15.510Z,15.93
2017-10-26T21:33:49.520Z,18.23
2017-10-26T21:36:17.009Z,16.27
2017-10-26T21:38:44.558Z,12.93
2017-10-26T21:41:12.813Z,8.83
2017-10-26T21:43:40.329Z,9.20
2017-10-26T21:46:07.813Z,11.63
2017-10-26T21:48:35.315Z,10.27
2017-10-26T21:51:03.556Z,10.50
2017-10-26T21:53:31.061Z,11.57
2017-10-26T21:55:58.626Z,10.10
2017-10-26T21:58:26.129Z,11.03
2017-10-26T22:00:53.638Z,9.83
2017-10-26T22:03:21.129Z,8.97
2017-10-26T22:05:48.599Z,10.45
2017-10-26T22:08:16.096Z,9.13
2017-10-26T22:10:44.332Z,11.17
2017-10-26T22:13:11.848Z,8.10
2017-10-26T22:15:40.120Z,9.13
2017-10-26T22:18:07.612Z,11.57
2017-10-26T22:20:35.076Z,9.60
2017-10-26T22:23:04.384Z,9.70
2017-10-26T22:25:31.858Z,8.10
2017-10-26T22:27:59.356Z,8.87
2017-10-26T22:30:26.829Z,10.37
2017-10-26T22:32:54.307Z,8.80
2017-10-26T22:35:21.997Z,8.20
2017-10-26T22:37:49.478Z,9.13
2017-10-26T22:40:17.743Z,12.00
2017-10-26T22:42:45.972Z,9.10
2017-10-26T22:45:14.475Z,7.68
2017-10-26T22:47:41.958Z,9.90
2017-10-26T22:50:10.193Z,12.17
2017-10-26T22:52:37.684Z,11.30
2017-10-26T22:55:05.175Z,10.33
2017-10-26T22:57:32.640Z,11.00
2017-10-26T23:00:00.128Z,10.00
2017-10-26T23:02:27.596Z,11.20
2017-10-26T23:04:55.090Z,10.10
2017-10-26T23:07:23.403Z,9.00
2017-10-26T23:09:50.894Z,8.80
2017-10-26T23:12:18.362Z,11.43
2017-10-26T23:14:46.605Z,7.90
2017-10-26T23:17:14.089Z,8.17
2017-10-26T23:19:41.568Z,7.95
2017-10-26T23:22:09.807Z,10.87
2017-10-26T23:24:37.306Z,7.20
2017-10-26T23:27:05.584Z,6.97
2017-10-26T23:29:33.842Z,7.20
2017-10-26T23:32:02.081Z,14.23
2017-10-26T23:34:29.576Z,8.70
2017-10-26T23:36:57.835Z,10.67
2017-10-26T23:39:25.351Z,9.90
2017-10-26T23:41:52.835Z,8.65
2017-10-26T23:44:20.316Z,8.60
2017-10-26T23:46:47.781Z,9.03
2017-10-26T23:49:16.024Z,9.60
2017-10-26T23:51:43.530Z,12.90
2017-10-26T23:54:11.781Z,11.27
2017-10-26T23:56:39.267Z,17.70
2017-10-26T23:59:07.517Z,8.20
